Time;durP1;ratioP1;P1;durP2;ratioP2;P2;SDS_P1;SDS_P2;PMS_P1;PMS_P2;Temp;Humidity;BMP_temperature;BMP_pressure;BME280_temperature;BME280_humidity;BME280_pressure;Samples;Min_cycle;Max_cycle;Signal;HPM_P1;HPM_P2
2022/02/17 00:00:12;;;;;;;;;;;;;;;2.38;90.95;99487.94;1679474;83;20977;-68
2022/02/17 00:02:44;;;;;;;66.50;39.43;;;;;;;2.41;90.91;99486.80;1682018;83;20428;-68
2022/02/17 00:05:11;;;;;;;70.13;41.00;;;;;;;2.39;91.13;99479.05;1685915;83;21052;-69
2022/02/17 00:07:38;;;;;;;65.63;38.97;;;;;;;2.39;91.44;99475.11;1687132;83;21151;-67
2022/02/17 00:10:08;;;;;;;66.90;39.33;;;;;;;2.41;91.49;99483.70;1682715;83;21032;-68
2022/02/17 00:12:35;;;;;;;59.03;36.80;;;;;;;2.38;91.85;99476.11;1683500;83;21179;-68
2022/02/17 00:15:04;;;;;;;63.70;39.57;;;;;;;2.38;91.91;99474.80;1682420;83;21112;-67
2022/02/17 00:17:31;;;;;;;59.23;39.53;;;;;;;2.41;91.83;99478.44;1670008;83;21589;-70
2022/02/17 00:19:57;;;;;;;62.73;38.83;;;;;;;2.50;91.91;99476.65;1681893;83;21014;-69
2022/02/17 00:22:24;;;;;;;67.12;41.23;;;;;;;2.59;91.95;99469.63;1675791;83;21042;-67
2022/02/17 00:24:50;;;;;;;62.13;40.70;;;;;;;2.63;91.53;99460.43;1683733;83;21114;-68
2022/02/17 00:27:18;;;;;;;62.98;35.33;;;;;;;2.58;91.51;99450.86;1682562;83;21076;-68
2022/02/17 00:29:44;;;;;;;65.23;38.33;;;;;;;2.48;91.84;99436.03;1676776;83;21062;-67
2022/02/17 00:32:15;;;;;;;63.70;41.17;;;;;;;2.47;92.09;99440.16;1679318;83;21033;-68
2022/02/17 00:34:43;;;;;;;65.63;40.63;;;;;;;2.47;92.11;99447.55;1679042;83;21600;-68
2022/02/17 00:37:10;;;;;;;57.97;38.13;;;;;;;2.50;92.06;99441.14;1675517;83;21080;-69
2022/02/17 00:39:37;;;;;;;59.40;34.83;;;;;;;2.51;92.18;99435.72;1683167;83;21129;-68
2022/02/17 00:42:04;;;;;;;54.05;34.70;;;;;;;2.49;92.21;99423.72;1677713;83;21521;-69
2022/02/17 00:44:31;;;;;;;59.83;37.03;;;;;;;2.47;92.35;99409.91;1685457;83;21034;-69
2022/02/17 00:46:59;;;;;;;57.53;38.50;;;;;;;2.43;92.45;99413.34;1683712;83;21022;-68
2022/02/17 00:49:28;;;;;;;51.67;34.50;;;;;;;2.43;92.60;99417.29;1675098;83;21031;-68
2022/02/17 00:51:57;;;;;;;62.00;38.63;;;;;;;2.41;92.89;99402.16;1679691;83;21033;-69
2022/02/17 00:54:24;;;;;;;59.20;39.23;;;;;;;2.45;92.91;99400.85;1681015;83;21505;-71
2022/02/17 00:56:50;;;;;;;53.53;34.53;;;;;;;1.99;92.92;99312.25;1687869;83;21021;-68
2022/02/17 00:59:17;;;;;;;64.12;38.30;;;;;;;2.50;93.01;99393.28;1675360;83;21060;-68
2022/02/17 01:01:46;;;;;;;60.40;37.80;;;;;;;2.57;92.78;99400.56;1678410;83;21024;-68
2022/02/17 01:04:13;;;;;;;58.70;37.70;;;;;;;2.59;92.71;99380.18;1676477;83;21574;-68
2022/02/17 01:06:43;;;;;;;54.00;36.47;;;;;;;2.58;92.58;99376.73;1683049;83;22351;-68
2022/02/17 01:09:11;;;;;;;57.23;37.33;;;;;;;2.60;92.48;99372.59;1687870;83;21009;-68
2022/02/17 01:11:38;;;;;;;59.90;38.03;;;;;;;2.61;92.42;99370.31;1690588;83;21016;-68
2022/02/17 01:14:06;;;;;;;57.47;36.53;;;;;;;2.62;92.28;99354.84;1688630;83;21051;-69
2022/02/17 01:16:33;;;;;;;53.50;36.10;;;;;;;2.61;92.05;99350.58;1677958;83;21543;-71
2022/02/17 01:19:02;;;;;;;55.20;36.37;;;;;;;2.62;91.91;99350.90;1674957;83;21019;-69
2022/02/17 01:21:28;;;;;;;48.23;32.70;;;;;;;2.51;91.87;99345.47;1686287;83;21000;-68
2022/02/17 01:23:54;;;;;;;48.50;34.92;;;;;;;2.51;91.66;99330.50;1679876;82;21068;-69
2022/02/17 01:26:21;;;;;;;54.05;35.70;;;;;;;2.53;91.58;99329.84;1690003;83;21607;-69
2022/02/17 01:28:49;;;;;;;59.57;38.00;;;;;;;2.52;91.29;99341.37;1672682;83;20984;-68
2022/02/17 01:31:18;;;;;;;55.75;35.15;;;;;;;2.46;91.28;99338.04;1692709;83;20986;-68
2022/02/17 01:33:46;;;;;;;53.70;35.17;;;;;;;2.37;91.74;99332.92;1679090;83;21008;-68
2022/02/17 01:36:15;;;;;;;52.53;35.93;;;;;;;2.28;92.14;99322.86;1679076;83;21596;-67
2022/02/17 01:38:44;;;;;;;;;;;;;;;2.20;92.66;99309.20;1686411;83;21524;-67
2022/02/17 01:41:11;;;;;;;61.63;37.33;;;;;;;2.18;92.88;99299.33;1681096;83;20140;-68
2022/02/17 01:43:40;;;;;;;56.57;36.67;;;;;;;2.13;93.34;99285.37;1678865;83;21067;-68
2022/02/17 01:46:09;;;;;;;58.90;37.50;;;;;;;2.11;94.05;99280.77;1681794;83;21077;-68
2022/02/17 01:48:37;;;;;;;64.97;37.53;;;;;;;2.13;94.57;99293.25;1686056;83;21119;-71
2022/02/17 01:51:04;;;;;;;63.23;37.13;;;;;;;2.16;94.56;99278.95;1684446;83;21079;-68
2022/02/17 01:53:32;;;;;;;55.20;35.43;;;;;;;2.18;94.92;99288.00;1655522;83;21101;-68
2022/02/17 01:56:02;;;;;;;58.03;36.57;;;;;;;2.23;94.95;99274.70;1690765;83;20979;-69
2022/02/17 01:58:31;;;;;;;60.30;37.10;;;;;;;2.30;95.13;99264.38;1702038;83;21010;-71
2022/02/17 02:01:02;;;;;;;64.50;41.63;;;;;;;2.33;95.46;99260.09;1677473;84;20982;-68
2022/02/17 02:03:29;;;;;;;63.30;41.00;;;;;;;2.39;95.48;99259.95;1685772;84;20999;-68
2022/02/17 02:05:57;;;;;;;61.93;39.60;;;;;;;2.40;95.54;99245.33;1683279;84;21022;-68
2022/02/17 02:08:26;;;;;;;61.00;38.33;;;;;;;2.40;95.69;99247.95;1669299;84;21603;-68
2022/02/17 02:10:52;;;;;;;61.00;39.70;;;;;;;2.40;95.85;99237.44;1664212;84;21027;-68
2022/02/17 02:13:18;;;;;;;66.80;42.70;;;;;;;2.45;95.87;99236.93;1686451;82;21043;-67
2022/02/17 02:15:51;;;;;;;59.65;38.48;;;;;;;2.47;95.79;99222.65;1693180;83;21553;-67
2022/02/17 02:18:21;;;;;;;57.30;35.57;;;;;;;2.49;95.96;99209.34;1698251;82;21008;-68
2022/02/17 02:20:54;;;;;;;63.03;39.93;;;;;;;2.47;96.00;99201.61;1681439;82;21079;-69
2022/02/17 02:23:22;;;;;;;61.33;38.67;;;;;;;2.50;96.11;99201.27;1703122;82;21537;-69
2022/02/17 02:25:52;;;;;;;59.77;38.83;;;;;;;2.47;96.23;99209.50;1693286;82;21202;-70
2022/02/17 02:28:30;;;;;;;63.00;40.70;;;;;;;2.52;96.20;99191.42;1703755;82;21026;-68
2022/02/17 02:30:59;;;;;;;61.17;37.10;;;;;;;2.53;96.30;99204.08;1700745;82;21000;-67
2022/02/17 02:33:26;;;;;;;56.30;39.20;;;;;;;2.53;96.31;99181.22;1684160;82;21135;-67
2022/02/17 02:35:56;;;;;;;57.50;38.50;;;;;;;2.62;96.07;99170.67;1686735;82;20987;-69
2022/02/17 02:38:22;;;;;;;57.93;39.70;;;;;;;2.64;96.04;99173.99;1676993;83;21543;-67
2022/02/17 02:40:49;;;;;;;50.20;35.35;;;;;;;2.68;95.88;99162.95;1699527;83;21496;-67
2022/02/17 02:43:17;;;;;;;51.13;36.33;;;;;;;2.77;95.75;99168.20;1698851;84;21038;-68
2022/02/17 02:45:44;;;;;;;56.88;38.40;;;;;;;2.82;95.56;99166.71;1700839;82;21018;-68
2022/02/17 02:48:14;;;;;;;55.13;33.47;;;;;;;2.80;95.39;99167.38;1694515;83;21046;-68
2022/02/17 02:50:41;;;;;;;50.13;32.80;;;;;;;2.83;95.19;99159.16;1699262;82;21022;-68
2022/02/17 02:53:10;;;;;;;52.80;34.30;;;;;;;2.72;95.16;99140.58;1703293;82;21050;-68
2022/02/17 02:55:36;;;;;;;57.23;35.93;;;;;;;2.85;94.97;99149.78;1704217;82;21024;-69
2022/02/17 02:58:05;;;;;;;51.57;36.37;;;;;;;2.82;95.05;99143.53;1686423;84;21031;-69
2022/02/17 03:00:32;;;;;;;53.40;36.43;;;;;;;2.84;94.87;99137.09;1687721;82;21042;-69
2022/02/17 03:02:58;;;;;;;48.50;35.52;;;;;;;2.90;94.79;99127.23;1677328;84;21004;-68
2022/02/17 03:05:26;;;;;;;55.07;37.73;;;;;;;2.91;94.67;99121.47;1707121;82;21042;-69
2022/02/17 03:07:55;;;;;;;56.05;38.17;;;;;;;2.92;94.57;99115.23;1711173;82;21018;-69
2022/02/17 03:10:22;;;;;;;48.83;37.40;;;;;;;2.93;94.51;99107.64;1690410;82;21511;-68
2022/02/17 03:12:48;;;;;;;54.47;34.90;;;;;;;2.95;94.48;99107.48;1704339;82;21407;-68
2022/02/17 03:15:15;;;;;;;56.60;38.23;;;;;;;2.92;94.61;99100.75;1697730;83;21063;-68
2022/02/17 03:17:41;;;;;;;;;;;;;;;2.92;94.66;99092.86;1704931;83;21328;-69
2022/02/17 03:20:09;;;;;;;57.10;37.43;;;;;;;2.87;94.89;99092.53;1703302;83;20135;-70
2022/02/17 03:22:38;;;;;;;52.97;37.93;;;;;;;2.89;95.04;99101.89;1690747;83;21046;-69
2022/02/17 03:25:09;;;;;;;53.97;38.17;;;;;;;2.95;94.94;99102.22;1715259;82;21122;-68
2022/02/17 03:27:36;;;;;;;50.27;36.63;;;;;;;3.02;94.91;99095.28;1712243;82;20992;-68
2022/02/17 03:30:08;;;;;;;54.97;37.63;;;;;;;3.03;94.80;99092.96;1708539;82;21094;-70
2022/02/17 03:32:37;;;;;;;56.37;38.37;;;;;;;3.12;94.58;99097.20;1693611;82;20973;-69
2022/02/17 03:35:06;;;;;;;49.23;35.17;;;;;;;3.18;94.34;99086.48;1697686;83;20983;-69
2022/02/17 03:37:34;;;;;;;49.43;34.33;;;;;;;3.23;94.02;99093.39;1678502;82;21042;-69
2022/02/17 03:40:04;;;;;;;51.97;37.37;;;;;;;3.26;93.68;99093.87;1696388;82;21150;-68
2022/02/17 03:42:50;;;;;;;45.53;34.07;;;;;;;3.33;93.52;99091.35;1696993;82;21002;-69
2022/02/17 03:45:18;;;;;;;48.57;35.10;;;;;;;3.37;93.37;99077.34;1698785;83;21002;-69
2022/02/17 03:47:45;;;;;;;46.33;33.30;;;;;;;3.40;93.20;99069.92;1670527;84;21050;-69
2022/02/17 03:50:16;;;;;;;49.60;35.53;;;;;;;3.36;92.91;99063.86;1703003;82;20999;-69
2022/02/17 03:52:44;;;;;;;56.93;38.27;;;;;;;3.42;92.75;99059.22;1708811;83;21101;-67
2022/02/17 03:55:18;;;;;;;48.23;33.60;;;;;;;3.45;92.64;99063.64;1712929;81;21065;-69
2022/02/17 03:57:46;;;;;;;55.97;39.07;;;;;;;3.48;92.48;99050.61;1692224;82;21015;-69
2022/02/17 04:00:15;;;;;;;53.13;36.47;;;;;;;3.55;92.28;99059.97;1704537;83;21047;-69
2022/02/17 04:02:45;;;;;;;47.67;34.73;;;;;;;3.58;92.05;99067.03;1686752;82;21078;-70
2022/02/17 04:05:13;;;;;;;52.70;37.07;;;;;;;3.64;91.82;99066.33;1693616;83;21060;-69
2022/02/17 04:07:40;;;;;;;52.33;37.60;;;;;;;3.67;91.53;99058.08;1704267;82;21051;-70
2022/02/17 04:10:09;;;;;;;49.00;33.00;;;;;;;3.64;91.19;99058.42;1695346;82;21090;-70
2022/02/17 04:12:37;;;;;;;52.70;36.90;;;;;;;3.61;91.15;99055.31;1702800;83;20967;-69
2022/02/17 04:15:05;;;;;;;52.48;36.93;;;;;;;3.65;91.02;99041.59;1696885;82;21061;-70
2022/02/17 04:17:33;;;;;;;54.33;38.67;;;;;;;3.69;90.95;99046.02;1705767;82;21014;-70
2022/02/17 04:20:04;;;;;;;49.30;36.17;;;;;;;3.66;90.86;99032.70;1655876;84;21019;-68
2022/02/17 04:22:38;;;;;;;55.97;38.93;;;;;;;3.72;90.77;99030.38;1704783;82;20986;-70
2022/02/17 04:25:15;;;;;;;53.45;39.67;;;;;;;3.74;90.51;99029.19;1700439;82;21104;-68
2022/02/17 04:27:43;;;;;;;54.63;36.83;;;;;;;3.75;90.42;99034.80;1694993;83;21062;-68
2022/02/17 04:30:11;;;;;;;58.70;38.63;;;;;;;3.80;90.28;99022.39;1684407;83;21054;-68
2022/02/17 04:32:38;;;;;;;58.07;40.00;;;;;;;3.84;89.96;99021.05;1687704;82;20962;-68
2022/02/17 04:35:05;;;;;;;58.73;39.50;;;;;;;3.79;89.85;98996.55;1664580;84;21022;-67
2022/02/17 04:37:32;;;;;;;57.23;39.87;;;;;;;3.81;89.75;99000.33;1687095;82;21091;-66
2022/02/17 04:40:00;;;;;;;55.83;39.07;;;;;;;3.79;89.78;98995.73;1686305;83;21073;-68
2022/02/17 04:42:28;;;;;;;55.37;37.07;;;;;;;3.82;89.76;98987.45;1692661;83;21091;-69
2022/02/17 04:44:57;;;;;;;56.07;39.53;;;;;;;3.81;89.63;98995.05;1694987;82;21018;-68
2022/02/17 04:47:25;;;;;;;57.30;40.17;;;;;;;3.79;89.63;98978.09;1689503;83;21062;-67
2022/02/17 04:49:51;;;;;;;60.67;40.57;;;;;;;3.80;89.52;98975.77;1700382;82;21007;-69
2022/02/17 04:52:19;;;;;;;54.03;37.17;;;;;;;3.81;89.44;98975.28;1707516;83;20979;-68
2022/02/17 04:54:45;;;;;;;54.30;37.25;;;;;;;3.81;89.43;98967.38;1686609;83;21536;-67
2022/02/17 04:57:13;;;;;;;57.33;39.27;;;;;;;3.86;89.39;98961.05;1696443;82;21062;-67
2022/02/17 04:59:40;;;;;;;;;;;;;;;3.84;89.29;98959.09;1703127;83;21090;-68
2022/02/17 05:02:06;;;;;;;51.97;32.97;;;;;;;3.88;89.23;98960.38;1711559;82;20125;-68
2022/02/17 05:04:38;;;;;;;55.93;35.80;;;;;;;3.82;89.19;98960.59;1692441;83;21050;-68
2022/02/17 05:07:07;;;;;;;59.60;40.43;;;;;;;3.83;88.98;98961.43;1709494;82;21043;-69
2022/02/17 05:09:37;;;;;;;59.17;41.57;;;;;;;3.84;89.03;98954.66;1693053;83;21015;-69
2022/02/17 05:12:05;;;;;;;59.43;40.47;;;;;;;3.87;88.99;98944.25;1691669;82;21054;-67
2022/02/17 05:14:32;;;;;;;54.20;38.00;;;;;;;3.90;88.91;98943.91;1712219;82;21058;-69
2022/02/17 05:16:58;;;;;;;54.90;38.80;;;;;;;3.89;88.70;98936.47;1699045;83;21169;-70
2022/02/17 05:19:26;;;;;;;58.50;39.40;;;;;;;3.84;88.68;98936.69;1694094;82;20997;-65
2022/02/17 05:22:10;;;;;;;58.43;41.13;;;;;;;3.80;88.82;98935.41;1691244;81;21022;-68
2022/02/17 05:24:43;;;;;;;60.67;41.77;;;;;;;3.80;88.83;98939.38;1696069;82;21655;-66
2022/02/17 05:27:24;;;;;;;59.30;42.27;;;;;;;3.83;88.70;98929.29;1694009;83;21046;-66
2022/02/17 05:30:40;;;;;;;59.63;41.00;;;;;;;3.92;88.75;98911.59;1806606;78;22326;-68
2022/02/17 05:33:25;;;;;;;63.40;39.33;;;;;;;3.94;88.51;98914.86;1754159;80;21047;-69
2022/02/17 05:36:05;;;;;;;63.57;41.93;;;;;;;3.86;88.32;98899.11;1700362;83;21070;-66
2022/02/17 05:38:50;;;;;;;63.73;42.47;;;;;;;3.88;88.15;98890.52;1701890;83;21048;-67
2022/02/17 05:41:18;;;;;;;65.63;42.67;;;;;;;3.93;88.12;98889.48;1719406;83;21061;-66
2022/02/17 05:43:45;;;;;;;60.08;39.00;;;;;;;3.87;88.10;98894.17;1710306;83;21041;-65
2022/02/17 05:46:11;;;;;;;62.98;42.27;;;;;;;3.90;87.90;98877.49;1695096;80;21005;-66
2022/02/17 05:48:38;;;;;;;63.47;42.37;;;;;;;3.89;87.80;98869.25;1696686;83;21068;-67
2022/02/17 05:51:04;;;;;;;61.10;41.10;;;;;;;3.86;87.82;98848.55;1692678;83;21061;-68
2022/02/17 05:53:30;;;;;;;63.83;42.17;;;;;;;3.85;87.89;98851.36;1697305;83;21020;-67
2022/02/17 05:55:57;;;;;;;64.20;40.95;;;;;;;3.85;87.87;98842.13;1685184;83;21009;-69
2022/02/17 05:58:24;;;;;;;57.17;39.30;;;;;;;3.55;87.98;98799.95;1636781;85;21048;-66
2022/02/17 06:00:51;;;;;;;66.57;42.35;;;;;;;3.83;88.06;98856.00;1660055;83;21029;-67
2022/02/17 06:03:17;;;;;;;65.57;44.77;;;;;;;3.82;88.07;98851.20;1682707;83;21077;-71
2022/02/17 06:05:44;;;;;;;60.43;39.60;;;;;;;3.81;88.16;98849.58;1660070;85;21097;-66
2022/02/17 06:08:10;;;;;;;66.67;43.85;;;;;;;3.80;88.22;98847.93;1642212;86;21584;-67
2022/02/17 06:10:37;;;;;;;;;;;;;;;3.82;88.11;98846.44;1646624;86;21116;-65
2022/02/17 06:13:03;;;;;;;63.00;41.57;;;;;;;3.82;88.14;98845.13;1640679;86;20452;-71
2022/02/17 06:15:30;;;;;;;62.57;41.77;;;;;;;3.76;88.35;98853.25;1650928;86;21144;-70
2022/02/17 06:17:58;;;;;;;72.67;47.60;;;;;;;3.80;88.24;98851.88;1644412;86;21057;-79
2022/02/17 06:20:24;;;;;;;69.32;40.95;;;;;;;3.85;88.13;98847.41;1652040;86;21118;-81
2022/02/17 06:22:51;;;;;;;62.03;42.20;;;;;;;3.87;87.95;98851.99;1636940;85;21009;-84
2022/02/17 06:25:19;;;;;;;67.78;43.50;;;;;;;3.83;88.10;98839.67;1624276;86;21075;-82
2022/02/17 06:27:47;;;;;;;63.60;42.07;;;;;;;3.86;88.04;98838.00;1612073;86;21038;-79
2022/02/17 06:30:13;;;;;;;62.13;41.67;;;;;;;3.88;88.01;98828.57;1612025;87;21053;-87
2022/02/17 06:32:52;;;;;;;70.00;43.67;;;;;;;3.89;88.01;98819.67;1644645;86;21071;-81
2022/02/17 06:35:21;;;;;;;67.25;42.23;;;;;;;3.89;87.92;98817.04;1632802;83;21050;-87
2022/02/17 06:37:52;;;;;;;61.57;40.03;;;;;;;3.93;87.88;98809.59;1643744;85;21580;-80
2022/02/17 06:40:20;;;;;;;68.60;44.60;;;;;;;3.89;87.79;98813.89;1630520;85;20993;-80
2022/02/17 06:42:47;;;;;;;69.43;42.53;;;;;;;3.95;87.68;98801.80;1653360;83;21272;-84
2022/02/17 06:45:16;;;;;;;63.73;41.73;;;;;;;3.96;87.64;98794.73;1660342;82;21052;-79
2022/02/17 06:47:42;;;;;;;70.17;42.67;;;;;;;3.93;87.49;98788.50;1645063;81;21661;-81
2022/02/17 06:50:10;;;;;;;64.17;44.15;;;;;;;3.96;87.56;98796.05;1649074;85;21171;-84
2022/02/17 06:52:36;;;;;;;68.00;42.63;;;;;;;4.01;87.39;98801.57;1645595;85;21002;-84
2022/02/17 06:55:04;;;;;;;74.15;43.05;;;;;;;3.97;87.24;98790.57;1646079;85;21050;-81
2022/02/17 06:57:32;;;;;;;67.70;43.73;;;;;;;3.95;87.40;98785.98;1646888;85;21025;-83
2022/02/17 07:00:02;;;;;;;63.13;43.83;;;;;;;4.01;87.31;98787.06;1643892;85;21026;-86
2022/02/17 07:02:27;;;;;;;59.80;41.60;;;;;;;4.02;87.20;98784.77;1625132;86;21127;-82
2022/02/17 07:04:54;;;;;;;67.05;44.48;;;;;;;3.99;87.15;98775.89;1657061;85;21021;-86
2022/02/17 07:07:20;;;;;;;;;;;;;;;4.03;86.87;98773.20;1649262;85;21028;-83
2022/02/17 07:09:46;;;;;;;59.67;39.10;;;;;;;4.03;86.88;98771.41;1667918;82;20159;-80
2022/02/17 07:12:14;;;;;;;62.43;40.80;;;;;;;4.05;86.92;98771.19;1660524;83;21584;-83
2022/02/17 07:14:42;;;;;;;64.17;41.28;;;;;;;4.09;86.51;98757.47;1621670;87;21137;-88
2022/02/17 07:17:09;;;;;;;57.73;40.83;;;;;;;4.08;86.40;98751.87;1623670;87;21018;-86
2022/02/17 07:19:37;;;;;;;63.60;41.90;;;;;;;4.06;86.37;98734.09;1635059;81;21215;-84
2022/02/17 07:22:16;;;;;;;57.60;39.88;;;;;;;4.13;86.20;98737.34;1734522;81;21005;31
2022/02/17 07:24:42;;;;;;;61.47;37.73;;;;;;;4.19;86.02;98722.08;1663899;85;21145;-61
2022/02/17 07:27:09;;;;;;;58.55;39.88;;;;;;;4.24;85.80;98712.60;1682574;84;21016;-62
2022/02/17 07:29:36;;;;;;;57.05;40.30;;;;;;;4.26;85.25;98701.87;1694207;84;21032;-60
2022/02/17 07:32:08;;;;;;;54.93;38.03;;;;;;;4.34;85.13;98675.87;1688433;84;21035;-61
2022/02/17 07:34:34;;;;;;;60.37;38.80;;;;;;;4.33;84.83;98673.71;1681583;81;21106;-60
2022/02/17 07:37:00;;;;;;;59.88;38.90;;;;;;;4.43;84.70;98663.67;1674455;84;21062;-60
2022/02/17 07:39:29;;;;;;;55.60;39.20;;;;;;;4.44;84.24;98664.48;1672258;84;21151;-60
2022/02/17 07:41:55;;;;;;;58.83;39.63;;;;;;;4.50;84.18;98650.52;1672644;84;21087;-60
2022/02/17 07:44:26;;;;;;;57.83;38.13;;;;;;;4.59;83.88;98645.42;1682483;83;21129;-60
2022/02/17 07:46:53;;;;;;;58.67;37.53;;;;;;;4.67;83.26;98651.91;1678710;84;20945;-60
2022/02/17 07:49:19;;;;;;;54.07;38.27;;;;;;;4.69;82.94;98642.48;1673670;84;21075;-59
2022/02/17 07:51:45;;;;;;;58.45;40.20;;;;;;;4.81;82.86;98636.97;1677752;84;21014;-61
2022/02/17 07:54:12;;;;;;;52.00;35.48;;;;;;;4.86;82.24;98636.41;1673914;84;21043;-60
2022/02/17 07:56:39;;;;;;;61.97;39.47;;;;;;;4.87;81.76;98630.91;1673781;81;21011;-60
2022/02/17 07:59:05;;;;;;;56.13;37.55;;;;;;;4.92;81.73;98621.62;1675946;84;21108;-71
2022/02/17 08:01:32;;;;;;;54.40;36.83;;;;;;;4.99;81.48;98615.84;1675346;84;21317;-69
2022/02/17 08:03:58;;;;;;;52.05;35.85;;;;;;;5.01;81.16;98625.70;1675056;84;21041;-69
2022/02/17 08:06:24;;;;;;;59.42;38.88;;;;;;;5.11;80.87;98605.06;1672611;84;21040;-72
2022/02/17 08:08:51;;;;;;;57.87;40.07;;;;;;;5.19;80.50;98607.52;1671635;84;21068;-69
2022/02/17 08:11:19;;;;;;;54.30;36.43;;;;;;;5.29;80.08;98612.44;1675161;82;21051;-71
2022/02/17 08:13:45;;;;;;;48.30;34.30;;;;;;;5.36;79.61;98604.56;1672461;84;21057;-74
2022/02/17 08:16:11;;;;;;;51.58;36.68;;;;;;;5.49;79.57;98622.30;1674231;84;20992;-73
2022/02/17 08:18:38;;;;;;;;;;;;;;;5.55;78.92;98643.45;1689036;84;21020;-75
2022/02/17 08:21:04;;;;;;;56.63;36.47;;;;;;;5.59;79.16;98641.23;1681839;84;20127;-74
2022/02/17 08:23:32;;;;;;;55.80;38.73;;;;;;;5.63;78.94;98626.12;1672848;83;21078;-73
2022/02/17 08:26:01;;;;;;;57.17;38.03;;;;;;;5.81;78.64;98609.69;1673396;84;21497;-73
2022/02/17 08:28:28;;;;;;;59.57;39.00;;;;;;;5.89;77.42;98608.68;1668632;84;21106;-74
2022/02/17 08:30:54;;;;;;;53.23;37.60;;;;;;;5.95;77.39;98592.06;1688111;84;21065;-73
2022/02/17 08:33:21;;;;;;;54.63;40.00;;;;;;;6.03;77.26;98586.58;1675352;84;21092;-72
2022/02/17 08:35:47;;;;;;;48.08;32.60;;;;;;;6.16;76.60;98570.39;1714230;83;21069;-73
2022/02/17 08:38:14;;;;;;;55.50;37.45;;;;;;;6.21;75.24;98559.50;1712938;83;21037;-73
2022/02/17 08:40:40;;;;;;;55.00;38.60;;;;;;;6.14;75.71;98548.62;1655577;84;21069;-73
2022/02/17 08:43:09;;;;;;;54.58;37.03;;;;;;;6.09;76.09;98532.56;1697679;83;21002;-73
2022/02/17 08:45:39;;;;;;;44.70;33.27;;;;;;;5.99;75.84;98537.75;1699339;82;20944;-74
2022/02/17 08:48:06;;;;;;;53.40;32.83;;;;;;;6.04;76.11;98527.86;1695018;83;21002;-76
2022/02/17 08:50:35;;;;;;;54.47;37.63;;;;;;;6.12;75.40;98525.52;1662772;84;21061;-73
2022/02/17 08:53:02;;;;;;;48.70;35.53;;;;;;;6.16;75.09;98528.06;1694097;83;21006;-73
2022/02/17 08:55:28;;;;;;;50.50;36.10;;;;;;;6.21;75.39;98525.62;1693661;83;21060;-74
2022/02/17 08:57:54;;;;;;;45.83;34.05;;;;;;;6.26;74.85;98527.16;1690037;84;21025;-73
2022/02/17 09:00:21;;;;;;;47.50;33.65;;;;;;;6.37;74.68;98527.05;1691256;83;21048;-74
2022/02/17 09:02:47;;;;;;;;;;;;;;;6.49;73.70;98529.36;1688776;84;21538;-74
2022/02/17 09:05:13;;;;;;;49.03;33.27;;;;;;;6.51;73.73;98534.45;1700119;83;20256;-74
2022/02/17 09:07:39;;;;;;;49.23;32.73;;;;;;;6.38;73.86;98519.41;1703149;83;21025;-73
2022/02/17 09:10:07;;;;;;;;;;;;;;;6.38;73.92;98516.23;1702769;83;20985;-76
2022/02/17 09:12:39;;;;;;;48.68;33.48;;;;;;;6.44;73.70;98498.72;1699835;82;20130;-85
2022/02/17 09:15:09;;;;;;;46.20;33.00;;;;;;;6.49;73.54;98496.80;1672507;84;21138;-84
2022/02/17 09:17:37;;;;;;;45.47;33.97;;;;;;;6.48;73.46;98493.83;1705132;82;21070;-81
2022/02/17 09:20:08;;;;;;;44.13;30.00;;;;;;;6.48;73.64;98488.54;1678476;84;21062;-84
2022/02/17 09:22:34;;;;;;;45.90;30.57;;;;;;;6.42;73.67;98484.40;1677679;84;21096;-81
2022/02/17 09:25:00;;;;;;;45.90;33.85;;;;;;;6.43;73.49;98489.98;1680663;84;21051;-83
2022/02/17 09:27:27;;;;;;;46.92;32.78;;;;;;;6.41;73.56;98464.75;1675054;84;21163;-79
2022/02/17 09:29:54;;;;;;;46.50;31.90;;;;;;;6.38;73.78;98464.63;1691008;84;21120;-83
2022/02/17 09:32:22;;;;;;;46.43;31.67;;;;;;;6.35;73.88;98453.16;1676826;84;21045;-84
2022/02/17 09:34:48;;;;;;;43.77;30.47;;;;;;;6.47;73.69;98435.32;1683209;84;21042;-82
2022/02/17 09:37:14;;;;;;;41.73;27.52;;;;;;;6.59;73.31;98433.63;1676847;84;21058;-76
2022/02/17 09:39:40;;;;;;;43.48;31.57;;;;;;;6.60;72.58;98426.81;1678018;84;21100;-85
2022/02/17 09:42:07;;;;;;;50.33;34.63;;;;;;;6.66;72.64;98406.63;1682207;84;21011;-85
2022/02/17 09:44:35;;;;;;;44.83;28.83;;;;;;;6.74;72.56;98397.14;1684840;84;21038;-65
2022/02/17 09:47:04;;;;;;;38.07;29.57;;;;;;;6.78;71.92;98377.16;1678840;84;21115;-65
2022/02/17 09:49:31;;;;;;;45.40;29.40;;;;;;;6.91;71.44;98387.36;1673442;84;21053;-65
2022/02/17 09:51:58;;;;;;;42.13;31.07;;;;;;;6.96;71.14;98396.30;1648309;85;21148;-65
2022/02/17 09:54:25;;;;;;;43.65;31.97;;;;;;;6.99;71.02;98376.02;1654424;85;21105;-66
2022/02/17 09:56:51;;;;;;;42.35;29.75;;;;;;;7.03;70.99;98373.75;1655737;84;21064;-65
2022/02/17 09:59:19;;;;;;;42.87;28.83;;;;;;;7.00;70.29;98367.55;1676207;84;21140;-64
2022/02/17 10:02:00;;;;;;;39.33;28.50;;;;;;;7.04;70.35;98356.82;1696490;82;21159;-63
2022/02/17 10:04:28;;;;;;;43.23;29.37;;;;;;;7.12;69.79;98334.06;1717805;82;20951;-65
2022/02/17 10:07:17;;;;;;;39.83;29.80;;;;;;;7.21;69.12;98334.59;1709049;82;21041;-66
2022/02/17 10:09:47;;;;;;;39.63;29.30;;;;;;;7.26;69.42;98316.73;1681902;84;21363;-64
2022/02/17 10:12:17;;;;;;;36.00;29.30;;;;;;;7.34;69.33;98311.16;1628263;85;21096;-64
2022/02/17 10:14:45;;;;;;;43.17;30.33;;;;;;;7.36;69.11;98303.27;1581960;89;21063;-65
2022/02/17 10:17:14;;;;;;;40.37;29.73;;;;;;;7.41;69.20;98297.33;1582926;89;21115;-66
2022/02/17 10:19:49;;;;;;;41.87;29.80;;;;;;;7.48;68.77;98294.61;1591357;89;21081;-67
2022/02/17 10:22:22;;;;;;;41.67;29.97;;;;;;;7.56;68.58;98292.50;1619095;85;21073;-66
2022/02/17 10:24:51;;;;;;;43.30;27.30;;;;;;;7.65;68.59;98297.50;1596126;88;21597;-64
2022/02/17 10:27:24;;;;;;;37.83;29.23;;;;;;;7.63;68.18;98294.27;1597499;88;21142;-64
2022/02/17 10:30:12;;;;;;;41.13;28.83;;;;;;;7.63;68.38;98277.03;1594144;89;21108;-64
2022/02/17 10:33:00;;;;;;;38.03;29.33;;;;;;;7.63;68.27;98270.40;1632819;87;21040;-66
2022/02/17 10:35:28;;;;;;;35.10;28.00;;;;;;;7.69;68.47;98271.67;1590108;88;21154;-65
2022/02/17 10:37:58;;;;;;;36.50;28.20;;;;;;;7.73;68.29;98260.91;1600661;88;21594;-67
2022/02/17 10:40:28;;;;;;;39.10;27.77;;;;;;;7.83;67.98;98253.77;1612545;87;21306;-65
2022/02/17 10:43:07;;;;;;;36.63;27.90;;;;;;;7.85;67.88;98245.06;1591297;88;21528;-64
2022/02/17 10:45:34;;;;;;;37.80;26.90;;;;;;;7.87;67.84;98241.67;1591076;88;21103;-65
2022/02/17 10:48:21;;;;;;;38.13;27.77;;;;;;;7.93;67.98;98235.50;1569606;90;21560;-66
2022/02/17 10:51:13;;;;;;;33.13;26.90;;;;;;;8.02;67.61;98232.53;1600951;88;21689;-66
2022/02/17 10:53:45;;;;;;;37.63;27.70;;;;;;;8.09;67.53;98228.77;1594367;88;21024;-64
2022/02/17 10:56:15;;;;;;;31.80;24.83;;;;;;;8.12;67.24;98216.91;1613536;87;21002;-66
2022/02/17 10:58:48;;;;;;;35.20;28.00;;;;;;;8.18;67.02;98214.67;1598863;88;21155;-64
2022/02/17 11:01:17;;;;;;;32.83;24.93;;;;;;;8.22;67.05;98211.86;1606142;87;21024;-65
2022/02/17 11:03:48;;;;;;;36.00;27.30;;;;;;;8.16;66.90;98218.88;1630969;87;21096;-66
2022/02/17 11:06:16;;;;;;;33.33;26.33;;;;;;;8.13;67.29;98207.90;1649578;86;21162;-66
2022/02/17 11:08:50;;;;;;;39.60;27.10;;;;;;;8.09;67.52;98199.57;1612145;87;21138;-66
2022/02/17 11:11:14;;;;;;;38.83;26.47;;;;;;;8.03;67.97;98195.70;1672060;85;21127;-65
2022/02/17 11:13:46;;;;;;;29.02;24.55;;;;;;;8.03;68.39;98183.76;1658673;85;21036;-64
2022/02/17 11:16:17;;;;;;;30.93;25.17;;;;;;;8.12;68.44;98188.52;1661325;85;21105;-68
2022/02/17 11:18:46;;;;;;;31.40;23.03;;;;;;;8.14;68.35;98189.63;1627493;86;21042;-64
2022/02/17 11:21:16;;;;;;;31.47;23.40;;;;;;;8.10;67.96;98183.12;1663800;84;20959;-64
2022/02/17 11:23:44;;;;;;;29.87;25.30;;;;;;;8.07;68.13;98188.38;1642447;85;21077;-65
2022/02/17 11:26:24;;;;;;;29.80;23.87;;;;;;;8.04;68.45;98181.38;1636599;86;21523;-65
2022/02/17 11:28:50;;;;;;;31.63;23.47;;;;;;;8.01;68.40;98165.41;1655569;86;21065;-65
2022/02/17 11:31:16;;;;;;;30.30;22.82;;;;;;;7.98;68.84;98173.80;1640479;86;21116;-64
2022/02/17 11:33:58;;;;;;;33.33;22.15;;;;;;;7.98;68.84;98173.80;1630174;86;21094;-64